Time;durP1;ratioP1;P1;durP2;ratioP2;P2;SDS_P1;SDS_P2;PMS_P1;PMS_P2;Temp;Humidity;BMP_temperature;BMP_pressure;BME280_temperature;BME280_humidity;BME280_pressure;Samples;Min_cycle;Max_cycle;Signal;HPM_P1;HPM_P2
2024/04/25 00:01:11;;;;;;;9.43;2.20;;;;;;;;;;5370167;26;20623;-72
2024/04/25 00:03:40;;;;;;;2.42;2.33;;;;;;;;;;5370710;26;20229;-72
2024/04/25 00:06:09;;;;;;;2.30;2.10;;;;;;;;;;5368083;26;20614;-72
2024/04/25 00:08:38;;;;;;;2.50;2.10;;;;;;;;;;5367084;26;20249;-72
2024/04/25 00:11:07;;;;;;;2.10;1.63;;;;;;;;;;5378988;26;20282;-72
2024/04/25 00:13:35;;;;;;;1.67;1.60;;;;;;;;;;5364332;26;20731;-72
2024/04/25 00:16:04;;;;;;;2.40;2.20;;;;;;;;;;5375779;26;20589;-72
2024/04/25 00:18:36;;;;;;;2.17;2.08;;;;;;;;;;5362088;26;20242;-73
2024/04/25 00:21:04;;;;;;;2.42;2.22;;;;;;;;;;5372362;26;20283;-72
2024/04/25 00:23:33;;;;;;;5.28;3.13;;;;;;;;;;5375048;26;20236;-73
2024/04/25 00:26:02;;;;;;;4.22;2.25;;;;;;;;;;5369106;26;20233;-72
2024/04/25 00:28:31;;;;;;;2.75;2.55;;;;;;;;;;5372171;26;20240;-72
2024/04/25 00:30:59;;;;;;;2.92;2.42;;;;;;;;;;5364670;26;20233;-73
2024/04/25 00:33:28;;;;;;;3.70;3.13;;;;;;;;;;5371325;26;20232;-72
2024/04/25 00:36:00;;;;;;;3.75;3.45;;;;;;;;;;5326440;26;20732;-72
2024/04/25 00:38:28;;;;;;;3.00;2.60;;;;;;;;;;5343211;26;20312;-72
2024/04/25 00:40:57;;;;;;;4.60;3.05;;;;;;;;;;5343924;26;20268;-72
2024/04/25 00:43:33;;;;;;;3.67;2.70;;;;;;;;;;5345445;26;20657;-72
2024/04/25 00:46:02;;;;;;;3.80;3.05;;;;;;;;;;5345953;26;20221;-72
2024/04/25 00:48:31;;;;;;;8.32;2.83;;;;;;;;;;5345888;26;20630;-72
2024/04/25 00:51:04;;;;;;;3.10;2.90;;;;;;;;;;5346028;26;20308;-73
2024/04/25 00:53:33;;;;;;;3.20;3.00;;;;;;;;;;5345610;26;20229;-73
2024/04/25 00:56:02;;;;;;;3.67;3.42;;;;;;;;;;5345875;26;20688;-73
2024/04/25 00:58:33;;;;;;;3.22;3.03;;;;;;;;;;5345719;26;20237;-72
2024/04/25 01:01:03;;;;;;;2.92;2.65;;;;;;;;;;5345824;26;20735;-73
2024/04/25 01:03:34;;;;;;;3.13;2.92;;;;;;;;;;5345628;26;20271;-72
2024/04/25 01:06:07;;;;;;;2.33;2.20;;;;;;;;;;5345731;26;20228;-72
2024/04/25 01:08:36;;;;;;;2.35;2.20;;;;;;;;;;5345607;26;20356;-72
2024/04/25 01:11:05;;;;;;;2.78;2.58;;;;;;;;;;5344269;26;20225;-72
2024/04/25 01:16:37;;;;;;;3.08;2.72;;;;;;;;;;5347995;26;20330;-72
2024/04/25 01:19:05;;;;;;;4.03;3.63;;;;;;;;;;5344828;26;20287;-72
2024/04/25 01:21:37;;;;;;;2.97;2.67;;;;;;;;;;5345238;26;20237;-72
2024/04/25 01:24:06;;;;;;;4.75;3.03;;;;;;;;;;5344665;26;20233;-72
2024/04/25 01:26:38;;;;;;;3.65;3.35;;;;;;;;;;5345029;26;20268;-72
2024/04/25 01:29:13;;;;;;;3.88;3.58;;;;;;;;;;5344954;26;20246;-72
2024/04/25 01:31:42;;;;;;;2.95;2.75;;;;;;;;;;5344739;26;20233;-72
2024/04/25 01:34:11;;;;;;;3.72;3.38;;;;;;;;;;5344406;26;20284;-72
2024/04/25 01:36:42;;;;;;;3.30;3.10;;;;;;;;;;5344873;26;20263;-71
2024/04/25 01:39:11;;;;;;;3.85;3.58;;;;;;;;;;5344831;26;20245;-72
2024/04/25 01:41:43;;;;;;;6.05;3.97;;;;;;;;;;5344741;26;20230;-72
2024/04/25 01:44:11;;;;;;;3.88;3.58;;;;;;;;;;5344424;26;20237;-72
2024/04/25 01:46:41;;;;;;;3.40;3.10;;;;;;;;;;5344434;26;20233;-72
2024/04/25 01:49:09;;;;;;;4.22;3.92;;;;;;;;;;5344195;26;20283;-72
2024/04/25 01:51:38;;;;;;;3.85;3.13;;;;;;;;;;5344353;26;20233;-72
2024/04/25 01:54:07;;;;;;;3.92;3.63;;;;;;;;;;5343966;26;20665;-72
2024/04/25 01:56:36;;;;;;;4.13;3.42;;;;;;;;;;5344850;26;20236;-72
2024/04/25 01:59:07;;;;;;;3.53;3.22;;;;;;;;;;5344530;26;20794;-72
2024/04/25 02:01:36;;;;;;;5.20;3.78;;;;;;;;;;5344492;26;20238;-73
2024/04/25 02:04:05;;;;;;;4.13;3.80;;;;;;;;;;5344197;26;20292;-72
2024/04/25 02:06:34;;;;;;;5.30;3.78;;;;;;;;;;5344444;26;20770;-71
2024/04/25 02:09:02;;;;;;;5.07;3.83;;;;;;;;;;5344052;26;20244;-72
2024/04/25 02:11:32;;;;;;;4.43;4.03;;;;;;;;;;5344201;26;20241;-72
2024/04/25 02:14:01;;;;;;;4.30;3.50;;;;;;;;;;5344303;26;20546;-71
2024/04/25 02:16:33;;;;;;;3.35;3.15;;;;;;;;;;5344227;26;20241;-72
2024/04/25 02:19:02;;;;;;;4.18;3.45;;;;;;;;;;5343934;26;20245;-73
2024/04/25 02:26:59;;;;;;;3.90;3.60;;;;;;;;;;5346559;26;20346;-72
2024/04/25 02:29:28;;;;;;;5.05;3.75;;;;;;;;;;5344033;26;20275;-72
2024/04/25 02:32:00;;;;;;;6.32;4.50;;;;;;;;;;5343973;26;20232;-71
2024/04/25 02:34:29;;;;;;;5.85;3.50;;;;;;;;;;5343774;26;20280;-72
2024/04/25 02:36:57;;;;;;;4.28;3.88;;;;;;;;;;5343929;26;20233;-72
2024/04/25 02:39:26;;;;;;;6.03;4.88;;;;;;;;;;5343810;26;20245;-73
2024/04/25 02:41:55;;;;;;;4.45;4.13;;;;;;;;;;5343943;26;20233;-72
2024/04/25 02:44:24;;;;;;;3.47;3.17;;;;;;;;;;5343881;26;20229;-72
2024/04/25 02:46:51;;;;;;;3.53;3.33;;;;;;;;;;5404096;21;20263;-70
2024/04/25 02:49:23;;;;;;;7.10;4.05;;;;;;;;;;5388336;26;20240;-71
2024/04/25 02:51:49;;;;;;;5.85;4.95;;;;;;;;;;5387065;26;20225;-71
2024/04/25 02:54:18;;;;;;;10.27;4.70;;;;;;;;;;5387727;26;20313;-70
2024/04/25 02:56:44;;;;;;;5.10;4.78;;;;;;;;;;5387756;26;20240;-70
2024/04/25 02:59:13;;;;;;;8.20;5.13;;;;;;;;;;5387613;26;20232;-70
2024/04/25 03:01:39;;;;;;;4.95;4.50;;;;;;;;;;5387531;26;20679;-70
2024/04/25 03:04:07;;;;;;;4.53;4.22;;;;;;;;;;5387786;26;20274;-71
2024/04/25 03:06:36;;;;;;;6.38;4.63;;;;;;;;;;5387426;26;20266;-71
2024/04/25 03:09:07;;;;;;;5.30;4.90;;;;;;;;;;5387539;26;20477;-70
2024/04/25 03:11:33;;;;;;;4.63;4.10;;;;;;;;;;5387640;26;20236;-71
2024/04/25 03:14:03;;;;;;;5.70;4.80;;;;;;;;;;5386841;26;20271;-71
2024/04/25 03:16:30;;;;;;;6.22;4.55;;;;;;;;;;5387450;26;20278;-70
2024/04/25 03:18:58;;;;;;;5.70;5.13;;;;;;;;;;5386739;26;20304;-70
2024/04/25 03:21:25;;;;;;;4.95;4.35;;;;;;;;;;5386905;26;20228;-70
2024/04/25 03:23:56;;;;;;;6.40;4.60;;;;;;;;;;5386792;26;20228;-71
2024/04/25 03:26:22;;;;;;;5.20;4.70;;;;;;;;;;5387782;26;20266;-71
2024/04/25 03:28:51;;;;;;;12.30;4.82;;;;;;;;;;5387575;26;20278;-70
2024/04/25 03:31:17;;;;;;;5.57;5.07;;;;;;;;;;5386867;26;20244;-70
2024/04/25 03:33:46;;;;;;;8.20;6.05;;;;;;;;;;5385558;26;20796;-71
2024/04/25 03:36:16;;;;;;;5.63;5.05;;;;;;;;;;5387208;26;21091;-70
2024/04/25 03:38:45;;;;;;;6.32;4.20;;;;;;;;;;5387158;26;20259;-71
2024/04/25 03:41:19;;;;;;;8.70;4.55;;;;;;;;;;5386726;26;20228;-71
2024/04/25 03:43:47;;;;;;;11.20;5.72;;;;;;;;;;5387034;26;20228;-71
2024/04/25 03:46:16;;;;;;;5.47;4.97;;;;;;;;;;5387744;26;20835;-70
2024/04/25 03:48:45;;;;;;;6.53;4.68;;;;;;;;;;5387183;26;20259;-70
2024/04/25 03:51:14;;;;;;;4.78;4.38;;;;;;;;;;5387382;26;20281;-71
2024/04/25 03:53:43;;;;;;;5.88;5.25;;;;;;;;;;5386702;26;20270;-70
2024/04/25 03:56:11;;;;;;;5.63;5.03;;;;;;;;;;5386913;26;20314;-70
2024/04/25 03:58:43;;;;;;;7.00;4.95;;;;;;;;;;5385641;26;20232;-70
2024/04/25 04:01:12;;;;;;;7.03;4.75;;;;;;;;;;5387078;26;20262;-71
2024/04/25 04:03:41;;;;;;;4.47;4.13;;;;;;;;;;5387495;26;20224;-71
2024/04/25 04:06:10;;;;;;;6.78;4.57;;;;;;;;;;5387596;26;20235;-70
2024/04/25 04:08:39;;;;;;;6.32;4.90;;;;;;;;;;5387344;26;20228;-70
2024/04/25 04:11:08;;;;;;;4.88;4.47;;;;;;;;;;5388229;26;20263;-71
2024/04/25 04:13:37;;;;;;;4.75;4.18;;;;;;;;;;5387457;26;20275;-71
2024/04/25 04:16:09;;;;;;;5.75;4.75;;;;;;;;;;5388344;26;20951;-70
2024/04/25 04:18:38;;;;;;;5.00;4.60;;;;;;;;;;5387919;26;20315;-70
2024/04/25 04:21:07;;;;;;;7.00;4.72;;;;;;;;;;5388173;26;20227;-71
2024/04/25 04:23:36;;;;;;;5.10;4.60;;;;;;;;;;5387593;26;20258;-71
2024/04/25 04:26:05;;;;;;;4.35;3.95;;;;;;;;;;5387226;26;20240;-70
2024/04/25 04:28:33;;;;;;;5.18;4.68;;;;;;;;;;5387837;26;20275;-70
2024/04/25 04:31:02;;;;;;;5.97;3.90;;;;;;;;;;5387629;26;20224;-70
2024/04/25 04:33:34;;;;;;;5.65;5.05;;;;;;;;;;5388202;26;20228;-70
2024/04/25 04:36:03;;;;;;;8.07;4.70;;;;;;;;;;5387502;26;20288;-70
2024/04/25 04:38:33;;;;;;;4.90;4.45;;;;;;;;;;5387150;26;20275;-70
2024/04/25 04:41:02;;;;;;;5.53;5.03;;;;;;;;;;5387179;26;20287;-70
2024/04/25 04:43:31;;;;;;;8.70;5.65;;;;;;;;;;5386056;26;20276;-70
2024/04/25 04:46:02;;;;;;;5.40;5.00;;;;;;;;;;5386211;26;20283;-70
2024/04/25 04:48:33;;;;;;;5.30;4.70;;;;;;;;;;5387505;26;20263;-70
2024/04/25 04:51:02;;;;;;;5.72;5.22;;;;;;;;;;5386831;26;20274;-71
2024/04/25 04:53:31;;;;;;;7.05;6.40;;;;;;;;;;5387218;26;20228;-71
2024/04/25 04:56:00;;;;;;;7.22;6.53;;;;;;;;;;5386461;26;20662;-70
2024/04/25 04:58:28;;;;;;;7.38;5.35;;;;;;;;;;5386396;26;20620;-70
2024/04/25 05:00:58;;;;;;;7.15;6.40;;;;;;;;;;5386461;26;20267;-71
2024/04/25 05:03:27;;;;;;;5.70;4.55;;;;;;;;;;5386229;26;20236;-71
2024/04/25 05:05:58;;;;;;;4.80;4.50;;;;;;;;;;5386826;26;20598;-70
2024/04/25 05:08:27;;;;;;;7.35;5.75;;;;;;;;;;5386804;26;20232;-71
2024/04/25 05:10:56;;;;;;;6.03;5.45;;;;;;;;;;5386356;26;20225;-71
2024/04/25 05:13:25;;;;;;;6.15;5.60;;;;;;;;;;5385933;26;20227;-71
2024/04/25 05:15:54;;;;;;;5.60;5.05;;;;;;;;;;5386191;26;20240;-71
2024/04/25 05:18:22;;;;;;;6.05;5.55;;;;;;;;;;5386474;26;20228;-70
2024/04/25 05:20:51;;;;;;;7.05;6.38;;;;;;;;;;5386672;26;20274;-71
2024/04/25 05:23:23;;;;;;;6.72;5.88;;;;;;;;;;5386180;26;20773;-71
2024/04/25 05:25:52;;;;;;;6.47;5.88;;;;;;;;;;5386407;26;20232;-70
2024/04/25 05:28:22;;;;;;;5.35;4.85;;;;;;;;;;5387303;26;20236;-71
2024/04/25 05:30:51;;;;;;;5.93;5.32;;;;;;;;;;5385934;26;20329;-71
2024/04/25 05:33:19;;;;;;;7.43;6.72;;;;;;;;;;5386282;26;20258;-71
2024/04/25 05:35:50;;;;;;;7.03;6.07;;;;;;;;;;5385958;26;20291;-71
2024/04/25 05:38:19;;;;;;;7.30;6.53;;;;;;;;;;5386067;26;20268;-71
2024/04/25 05:40:50;;;;;;;6.90;5.75;;;;;;;;;;5386524;26;20590;-71
2024/04/25 05:43:19;;;;;;;9.13;6.40;;;;;;;;;;5385735;26;20232;-71
2024/04/25 05:45:48;;;;;;;6.72;6.20;;;;;;;;;;5386899;26;20243;-71
2024/04/25 05:48:17;;;;;;;7.57;6.82;;;;;;;;;;5386261;26;20228;-71
2024/04/25 05:50:45;;;;;;;7.95;6.88;;;;;;;;;;5386531;26;20781;-71
2024/04/25 05:53:14;;;;;;;8.10;7.30;;;;;;;;;;5386912;26;20224;-71
2024/04/25 05:55:43;;;;;;;17.65;6.97;;;;;;;;;;5387725;26;20279;-71
2024/04/25 05:58:14;;;;;;;6.07;5.47;;;;;;;;;;5385665;26;20255;-71
2024/04/25 06:00:43;;;;;;;8.30;6.07;;;;;;;;;;5387646;26;20225;-70
2024/04/25 06:03:12;;;;;;;8.02;7.10;;;;;;;;;;5386887;26;20220;-71
2024/04/25 06:05:41;;;;;;;9.90;6.57;;;;;;;;;;5386711;26;20663;-71
2024/04/25 06:08:10;;;;;;;7.82;6.30;;;;;;;;;;5386939;26;20224;-70
2024/04/25 06:10:39;;;;;;;6.10;5.60;;;;;;;;;;5387446;26;20264;-71
2024/04/25 06:13:07;;;;;;;6.95;5.72;;;;;;;;;;5386819;26;20224;-71
2024/04/25 06:15:39;;;;;;;6.72;6.13;;;;;;;;;;5387956;26;20243;-70
2024/04/25 06:18:08;;;;;;;7.50;6.90;;;;;;;;;;5387676;26;20228;-70
2024/04/25 06:20:37;;;;;;;7.25;6.00;;;;;;;;;;5388250;26;20533;-70
2024/04/25 06:23:06;;;;;;;5.90;5.30;;;;;;;;;;5386516;26;20283;-71
2024/04/25 06:25:35;;;;;;;6.35;5.85;;;;;;;;;;5387798;26;20244;-71
2024/04/25 06:28:03;;;;;;;7.25;6.65;;;;;;;;;;5388428;26;20228;-71
2024/04/25 06:30:32;;;;;;;7.15;6.45;;;;;;;;;;5387854;26;20267;-71
2024/04/25 06:33:04;;;;;;;7.68;6.88;;;;;;;;;;5388333;26;20612;-71
2024/04/25 06:35:32;;;;;;;7.15;5.65;;;;;;;;;;5387583;26;20251;-71
2024/04/25 06:38:01;;;;;;;10.55;6.93;;;;;;;;;;5388014;26;20228;-70
2024/04/25 06:40:30;;;;;;;8.45;5.97;;;;;;;;;;5387784;26;20863;-70
2024/04/25 06:42:59;;;;;;;12.77;6.45;;;;;;;;;;5388497;26;20232;-71
2024/04/25 06:45:27;;;;;;;7.18;6.03;;;;;;;;;;5387937;26;20240;-71
2024/04/25 06:47:56;;;;;;;7.32;6.00;;;;;;;;;;5388138;26;20232;-71
2024/04/25 06:50:28;;;;;;;6.53;6.03;;;;;;;;;;5389008;26;20279;-71
2024/04/25 06:52:56;;;;;;;8.57;7.78;;;;;;;;;;5387927;26;20267;-71
2024/04/25 06:55:25;;;;;;;6.50;5.90;;;;;;;;;;5388152;26;20283;-71
2024/04/25 06:57:54;;;;;;;6.80;6.20;;;;;;;;;;5387779;26;20266;-71
2024/04/25 07:00:23;;;;;;;19.05;6.53;;;;;;;;;;5386228;26;20308;-71
2024/04/25 07:02:52;;;;;;;6.22;5.45;;;;;;;;;;5386783;26;20568;-71
2024/04/25 07:05:21;;;;;;;9.85;6.03;;;;;;;;;;5401560;26;20246;-71
2024/04/25 07:07:53;;;;;;;5.15;4.75;;;;;;;;;;5420911;26;20231;-71
2024/04/25 07:10:22;;;;;;;10.88;5.72;;;;;;;;;;5420723;26;20328;-71
2024/04/25 07:12:51;;;;;;;9.65;5.20;;;;;;;;;;5422109;26;20231;-71
2024/04/25 07:15:24;;;;;;;7.07;5.93;;;;;;;;;;5422673;26;20231;-71
2024/04/25 07:17:52;;;;;;;6.90;5.57;;;;;;;;;;5422889;26;20340;-71
2024/04/25 07:20:21;;;;;;;5.28;4.50;;;;;;;;;;5421947;26;20293;-71
2024/04/25 07:22:53;;;;;;;6.07;5.18;;;;;;;;;;5408001;26;20271;-72
2024/04/25 07:25:21;;;;;;;8.88;5.60;;;;;;;;;;5370853;26;20246;-71
2024/04/25 07:27:50;;;;;;;7.90;5.03;;;;;;;;;;5374041;26;20235;-71
2024/04/25 07:30:19;;;;;;;5.30;4.80;;;;;;;;;;5379360;26;20851;-71
2024/04/25 07:32:48;;;;;;;7.43;5.05;;;;;;;;;;5368897;26;20232;-71
2024/04/25 07:35:17;;;;;;;7.13;4.90;;;;;;;;;;5367953;26;20245;-71
2024/04/25 07:37:46;;;;;;;5.97;5.07;;;;;;;;;;5381250;26;20744;-71
2024/04/25 07:40:17;;;;;;;16.02;5.95;;;;;;;;;;5377115;26;20280;-71
2024/04/25 07:42:46;;;;;;;7.60;5.32;;;;;;;;;;5365311;26;20267;-71
2024/04/25 07:45:15;;;;;;;5.72;4.68;;;;;;;;;;5395264;26;20623;-71
2024/04/25 07:47:44;;;;;;;8.73;5.82;;;;;;;;;;5378733;26;20215;-71
2024/04/25 07:50:12;;;;;;;6.35;5.75;;;;;;;;;;5369536;26;20242;-71
2024/04/25 07:52:41;;;;;;;6.85;6.35;;;;;;;;;;5381185;26;20246;-71
2024/04/25 07:55:10;;;;;;;7.00;4.90;;;;;;;;;;5386097;26;20237;-71
2024/04/25 07:57:41;;;;;;;7.43;4.40;;;;;;;;;;5387300;26;20279;-71
2024/04/25 08:00:11;;;;;;;5.70;4.13;;;;;;;;;;5375386;26;20242;-72
2024/04/25 08:02:40;;;;;;;5.72;5.22;;;;;;;;;;5371868;26;20269;-71
2024/04/25 08:05:09;;;;;;;5.03;4.55;;;;;;;;;;5371028;26;20236;-71
2024/04/25 08:07:38;;;;;;;4.95;4.43;;;;;;;;;;5382448;26;20275;-71
2024/04/25 08:10:07;;;;;;;8.85;4.70;;;;;;;;;;5382629;26;20275;-71
2024/04/25 08:12:37;;;;;;;6.82;5.20;;;;;;;;;;5382413;26;20278;-72
2024/04/25 08:15:09;;;;;;;10.95;5.22;;;;;;;;;;5361977;26;20282;-71
2024/04/25 08:17:38;;;;;;;9.82;6.32;;;;;;;;;;5382223;26;20282;-71
2024/04/25 08:20:07;;;;;;;6.05;5.30;;;;;;;;;;5383503;26;20750;-71
2024/04/25 08:22:35;;;;;;;4.50;4.10;;;;;;;;;;5386703;26;20249;-72
2024/04/25 08:25:04;;;;;;;5.35;4.60;;;;;;;;;;5379568;26;20244;-72
2024/04/25 08:27:33;;;;;;;5.47;4.97;;;;;;;;;;5380296;26;20661;-71
2024/04/25 08:30:02;;;;;;;7.13;4.15;;;;;;;;;;5370992;26;20236;-72
2024/04/25 08:32:34;;;;;;;7.47;3.55;;;;;;;;;;5387004;26;20238;-71
2024/04/25 08:35:02;;;;;;;12.35;5.95;;;;;;;;;;5386806;26;20242;-71
2024/04/25 08:37:33;;;;;;;5.03;3.80;;;;;;;;;;5385762;26;20280;-72
2024/04/25 08:40:03;;;;;;;5.57;3.83;;;;;;;;;;5386221;26;20813;-72
2024/04/25 08:42:32;;;;;;;12.75;4.50;;;;;;;;;;5389469;26;20241;-72
2024/04/25 08:45:01;;;;;;;6.40;3.70;;;;;;;;;;5390080;26;20233;-72
2024/04/25 08:47:32;;;;;;;4.22;3.75;;;;;;;;;;5390098;26;20238;-71
2024/04/25 08:50:06;;;;;;;5.13;3.88;;;;;;;;;;5371016;26;20301;-73
2024/04/25 08:52:35;;;;;;;4.32;3.92;;;;;;;;;;5387142;26;20240;-72
2024/04/25 08:55:05;;;;;;;3.60;3.30;;;;;;;;;;5385156;26;20299;-72
2024/04/25 08:57:33;;;;;;;3.72;3.50;;;;;;;;;;5385676;26;20241;-72
2024/04/25 09:00:02;;;;;;;3.75;3.45;;;;;;;;;;5390344;26;20234;-71
2024/04/25 09:02:31;;;;;;;13.05;4.68;;;;;;;;;;5388588;26;20242;-71
2024/04/25 09:05:00;;;;;;;3.85;3.00;;;;;;;;;;5389049;26;20238;-72
2024/04/25 09:07:32;;;;;;;4.10;3.50;;;;;;;;;;5442063;21;20267;-74
2024/04/25 09:10:00;;;;;;;3.45;3.20;;;;;;;;;;5487905;26;20218;-74
2024/04/25 09:12:31;;;;;;;3.05;2.80;;;;;;;;;;5487763;26;20219;-75
2024/04/25 09:15:00;;;;;;;3.67;2.85;;;;;;;;;;5487928;26;20595;-74
2024/04/25 09:17:29;;;;;;;3.25;2.40;;;;;;;;;;5477311;26;20294;-73
2024/04/25 09:19:58;;;;;;;6.50;5.13;;;;;;;;;;5452310;26;20219;-74
2024/04/25 09:22:27;;;;;;;4.75;4.05;;;;;;;;;;5452012;26;20399;-74
2024/04/25 09:24:59;;;;;;;4.03;2.93;;;;;;;;;;5452226;26;20221;-74
2024/04/25 09:27:30;;;;;;;5.73;3.80;;;;;;;;;;5452115;26;21010;-74
2024/04/25 09:30:00;;;;;;;4.05;3.50;;;;;;;;;;5452117;26;20462;-74
2024/04/25 09:32:29;;;;;;;3.40;2.60;;;;;;;;;;5450576;26;20723;-74
2024/04/25 09:34:55;;;;;;;3.42;2.50;;;;;;;;;;5435592;26;20525;-74
2024/04/25 09:37:24;;;;;;;5.93;2.70;;;;;;;;;;5415610;26;20251;-74
2024/04/25 09:39:53;;;;;;;2.73;2.50;;;;;;;;;;5415547;26;20519;-74
2024/04/25 09:42:25;;;;;;;4.00;1.67;;;;;;;;;;5415332;26;20459;-74
2024/04/25 09:44:54;;;;;;;3.57;2.33;;;;;;;;;;5414854;26;20634;-74
2024/04/25 09:47:27;;;;;;;4.10;3.60;;;;;;;;;;5415077;26;21037;-74
2024/04/25 09:50:11;;;;;;;5.80;2.73;;;;;;;;;;5415349;26;20467;-74
2024/04/25 09:52:44;;;;;;;2.30;2.00;;;;;;;;;;5415052;26;20577;-74
2024/04/25 09:55:15;;;;;;;3.00;2.20;;;;;;;;;;5414934;26;20459;-74
2024/04/25 09:57:48;;;;;;;1.93;1.53;;;;;;;;;;5414955;26;20879;-74
2024/04/25 10:00:18;;;;;;;2.50;2.03;;;;;;;;;;5415393;26;20993;-74
2024/04/25 10:02:48;;;;;;;2.35;1.92;;;;;;;;;;5414805;26;20273;-73
2024/04/25 10:05:17;;;;;;;2.20;2.00;;;;;;;;;;5414747;26;20366;-74
2024/04/25 10:07:46;;;;;;;5.07;2.23;;;;;;;;;;5414574;26;20499;-73
2024/04/25 10:10:15;;;;;;;3.37;3.00;;;;;;;;;;5414993;26;20452;-73
2024/04/25 10:12:51;;;;;;;8.43;2.20;;;;;;;;;;5414950;26;20471;-73
2024/04/25 10:15:27;;;;;;;2.60;2.07;;;;;;;;;;5414694;26;20522;-74
2024/04/25 10:17:56;;;;;;;4.15;2.00;;;;;;;;;;5414671;26;20530;-73
2024/04/25 10:20:25;;;;;;;2.93;2.37;;;;;;;;;;5414897;26;20226;-73
2024/04/25 10:23:00;;;;;;;6.00;2.33;;;;;;;;;;5414289;26;20459;-74
2024/04/25 10:25:29;;;;;;;2.77;2.43;;;;;;;;;;5420162;26;20478;-74
2024/04/25 10:27:59;;;;;;;1.90;1.80;;;;;;;;;;5430841;26;20480;-73
2024/04/25 10:30:32;;;;;;;2.90;2.67;;;;;;;;;;5449145;26;20592;-73
2024/04/25 10:33:02;;;;;;;2.20;1.37;;;;;;;;;;5449582;26;20588;-73
2024/04/25 10:35:37;;;;;;;2.57;1.97;;;;;;;;;;5440240;26;20515;-73
2024/04/25 10:38:06;;;;;;;0.60;0.60;;;;;;;;;;5429882;26;20627;-74
2024/04/25 10:40:35;;;;;;;2.03;1.00;;;;;;;;;;5442379;26;20514;-74
2024/04/25 10:43:04;;;;;;;0.70;0.70;;;;;;;;;;5417216;26;20480;-74
2024/04/25 10:45:36;;;;;;;2.17;1.10;;;;;;;;;;5431701;26;20527;-74
2024/04/25 10:48:05;;;;;;;0.70;0.70;;;;;;;;;;5429531;26;21103;-74
2024/04/25 10:50:34;;;;;;;1.63;0.90;;;;;;;;;;5427467;26;20518;-74
2024/04/25 10:53:03;;;;;;;1.07;0.80;;;;;;;;;;5413714;26;20523;-74
2024/04/25 10:55:31;;;;;;;3.03;0.87;;;;;;;;;;5421845;26;20549;-74
2024/04/25 10:58:00;;;;;;;2.30;1.60;;;;;;;;;;5435647;26;20486;-74
2024/04/25 11:00:30;;;;;;;2.33;1.50;;;;;;;;;;5449913;26;20478;-73
2024/04/25 11:03:01;;;;;;;2.30;1.57;;;;;;;;;;5445145;26;20471;-74
2024/04/25 11:05:30;;;;;;;2.30;1.30;;;;;;;;;;5421493;26;20487;-73
2024/04/25 11:07:59;;;;;;;3.07;1.57;;;;;;;;;;5430428;26;20475;-74
2024/04/25 11:10:29;;;;;;;1.67;1.50;;;;;;;;;;5444053;26;20535;-73
2024/04/25 11:12:58;;;;;;;2.70;1.40;;;;;;;;;;5448443;26;20478;-74
2024/04/25 11:15:31;;;;;;;2.50;1.67;;;;;;;;;;5449187;26;20870;-74
2024/04/25 11:18:03;;;;;;;2.50;1.90;;;;;;;;;;5435098;26;20546;-74
2024/04/25 11:20:32;;;;;;;2.53;1.67;;;;;;;;;;5435883;26;20482;-73
2024/04/25 11:23:10;;;;;;;2.20;1.70;;;;;;;;;;5448448;26;20490;-75
2024/04/25 11:25:39;;;;;;;2.63;2.03;;;;;;;;;;5427971;26;20637;-74
2024/04/25 11:28:08;;;;;;;2.93;1.77;;;;;;;;;;5435134;26;20681;-73
2024/04/25 11:30:37;;;;;;;2.07;1.90;;;;;;;;;;5437083;26;20604;-74
2024/04/25 11:33:09;;;;;;;2.87;1.73;;;;;;;;;;5448339;26;20832;-73
2024/04/25 11:35:37;;;;;;;6.53;2.17;;;;;;;;;;5448301;26;20475;-72
2024/04/25 11:38:06;;;;;;;4.33;2.30;;;;;;;;;;5448556;26;20535;-73
2024/04/25 11:40:38;;;;;;;2.37;2.20;;;;;;;;;;5448202;26;20475;-73
2024/04/25 11:43:07;;;;;;;4.43;1.97;;;;;;;;;;5447866;26;20585;-73
2024/04/25 11:45:33;;;;;;;2.83;1.80;;;;;;;;;;5448197;26;20480;-72
2024/04/25 11:48:02;;;;;;;2.70;2.00;;;;;;;;;;5448353;26;20475;-73
2024/04/25 11:50:34;;;;;;;2.93;1.97;;;;;;;;;;5426323;26;20463;-73
2024/04/25 11:53:06;;;;;;;1.80;1.70;;;;;;;;;;5447963;26;20520;-74
2024/04/25 11:55:35;;;;;;;2.33;2.20;;;;;;;;;;5437628;26;20525;-74
2024/04/25 11:58:04;;;;;;;2.13;1.80;;;;;;;;;;5451520;26;20471;-74
2024/04/25 12:00:33;;;;;;;2.30;1.93;;;;;;;;;;5452276;26;21019;-74
2024/04/25 12:03:01;;;;;;;2.20;2.00;;;;;;;;;;5451509;26;20925;-74
2024/04/25 12:05:31;;;;;;;2.23;2.10;;;;;;;;;;5451948;26;20519;-74
2024/04/25 12:08:03;;;;;;;3.03;1.73;;;;;;;;;;5450850;26;20486;-74
2024/04/25 12:10:32;;;;;;;2.80;2.00;;;;;;;;;;5451448;26;20966;-73
2024/04/25 12:13:02;;;;;;;2.10;1.77;;;;;;;;;;5451013;26;20909;-74
2024/04/25 12:15:31;;;;;;;2.33;1.97;;;;;;;;;;5451602;26;20536;-73
2024/04/25 12:17:59;;;;;;;1.90;1.70;;;;;;;;;;5450286;26;20471;-74
2024/04/25 12:20:28;;;;;;;4.17;2.90;;;;;;;;;;5451500;26;20514;-74
2024/04/25 12:22:57;;;;;;;2.43;1.43;;;;;;;;;;5438819;26;20525;-74
2024/04/25 12:25:30;;;;;;;1.33;1.33;;;;;;;;;;5451521;26;20462;-75
2024/04/25 12:27:59;;;;;;;1.40;1.30;;;;;;;;;;5450084;26;20476;-73
2024/04/25 12:30:28;;;;;;;1.80;1.70;;;;;;;;;;5437719;26;20474;-74
2024/04/25 12:32:57;;;;;;;1.90;1.80;;;;;;;;;;5436645;26;20462;-72
2024/04/25 12:35:26;;;;;;;1.63;1.53;;;;;;;;;;5450617;26;20458;-73
2024/04/25 12:37:55;;;;;;;2.03;1.30;;;;;;;;;;5450972;26;20541;-74
2024/04/25 12:40:24;;;;;;;3.23;1.53;;;;;;;;;;5451406;26;20461;-74
2024/04/25 12:42:55;;;;;;;2.27;1.50;;;;;;;;;;5450997;26;20516;-74
2024/04/25 12:45:25;;;;;;;2.33;1.67;;;;;;;;;;5448358;26;20474;-74
2024/04/25 12:47:54;;;;;;;3.00;2.37;;;;;;;;;;5428475;26;20491;-73
2024/04/25 12:50:23;;;;;;;1.83;1.73;;;;;;;;;;5421961;26;20538;-74
2024/04/25 12:52:52;;;;;;;1.90;1.80;;;;;;;;;;5436340;26;20525;-73
2024/04/25 12:55:21;;;;;;;2.60;1.70;;;;;;;;;;5440884;26;21049;-73
2024/04/25 12:57:54;;;;;;;1.93;1.37;;;;;;;;;;5448143;26;20539;-75
2024/04/25 13:00:26;;;;;;;1.23;1.13;;;;;;;;;;5428091;26;20814;-73
2024/04/25 13:02:54;;;;;;;1.67;1.57;;;;;;;;;;5450762;26;20902;-74
2024/04/25 13:05:23;;;;;;;1.03;1.03;;;;;;;;;;5451281;26;21085;-74
2024/04/25 13:07:52;;;;;;;1.40;1.30;;;;;;;;;;5450639;26;20529;-74
2024/04/25 13:10:21;;;;;;;1.63;1.00;;;;;;;;;;5451161;26;20867;-74
2024/04/25 13:12:50;;;;;;;1.00;1.00;;;;;;;;;;5450185;26;20277;-75
2024/04/25 13:15:18;;;;;;;1.80;1.70;;;;;;;;;;5437497;26;20523;-73
2024/04/25 13:17:50;;;;;;;3.10;2.03;;;;;;;;;;5418176;26;20473;-75
2024/04/25 13:20:20;;;;;;;1.87;1.40;;;;;;;;;;5440359;26;20467;-73
2024/04/25 13:22:48;;;;;;;2.73;1.60;;;;;;;;;;5424486;26;20552;-75
2024/04/25 13:25:17;;;;;;;2.23;2.00;;;;;;;;;;5416845;26;20513;-75
2024/04/25 13:27:46;;;;;;;2.80;1.83;;;;;;;;;;5436934;26;20479;-75
2024/04/25 13:30:15;;;;;;;1.50;1.33;;;;;;;;;;5423742;26;20527;-73
2024/04/25 13:32:43;;;;;;;1.93;1.83;;;;;;;;;;5420047;26;20469;-74
2024/04/25 13:35:15;;;;;;;1.53;1.20;;;;;;;;;;5435430;26;20862;-74
2024/04/25 13:37:43;;;;;;;;;;;;;;;;;;5430870;26;25114;-73
2024/04/25 13:40:12;;;;;;;;;;;;;;;;;;5434198;26;19940;-74
2024/04/25 13:42:41;;;;;;;;;;;;;;;;;;5417363;26;19940;-72
2024/04/25 13:45:09;;;;;;;;;;;;;;;;;;5418156;26;20351;-72
2024/04/25 13:47:38;;;;;;;;;;;;;;;;;;5431547;26;20354;-74
2024/04/25 13:50:06;;;;;;;;;;;;;;;;;;5423378;26;20368;-75
2024/04/25 13:52:35;;;;;;;;;;;;;;;;;;5420715;26;20686;-74
2024/04/25 13:55:04;;;;;;;;;;;;;;;;;;5417106;26;19929;-75
2024/04/25 13:57:32;;;;;;;;;;;;;;;;;;5434764;26;19975;-74
2024/04/25 14:00:01;;;;;;;;;;;;;;;;;;5430348;26;20003;-74
2024/04/25 14:02:30;;;;;;;;;;;;;;;;;;5416647;26;20279;-74
2024/04/25 14:04:58;;;;;;;;;;;;;;;;;;5432656;26;20795;-73
2024/04/25 14:07:27;;;;;;;;;;;;;;;;;;5426387;26;20417;-73
2024/04/25 14:09:59;;;;;;;1.33;1.23;;;;;;;;;;5423122;26;19929;-73
2024/04/25 14:12:28;;;;;;;1.20;1.10;;;;;;;;;;5426088;26;20474;-74
2024/04/25 14:14:57;;;;;;;0.80;0.80;;;;;;;;;;5438280;26;20455;-74
2024/04/25 14:17:25;;;;;;;1.80;1.10;;;;;;;;;;5440398;26;20552;-73
2024/04/25 14:19:54;;;;;;;1.13;1.03;;;;;;;;;;5447553;26;21528;-73
2024/04/25 14:22:23;;;;;;;1.97;1.37;;;;;;;;;;5447919;26;20529;-72
2024/04/25 14:25:00;;;;;;;2.10;1.90;;;;;;;;;;5434777;26;20515;-73
2024/04/25 14:30:21;;;;;;;2.00;1.80;;;;;;;;;;5334715;26;20564;-74
2024/04/25 14:32:50;;;;;;;1.80;1.70;;;;;;;;;;5448586;26;20528;-75
2024/04/25 14:35:19;;;;;;;1.87;1.77;;;;;;;;;;5448890;26;20530;-74
2024/04/25 14:37:47;;;;;;;1.93;1.80;;;;;;;;;;5434978;26;20476;-75
2024/04/25 14:40:15;;;;;;;1.93;1.73;;;;;;;;;;5438876;26;20468;-76
2024/04/25 14:42:46;;;;;;;1.47;1.47;;;;;;;;;;5447858;26;20585;-73
2024/04/25 14:45:15;;;;;;;1.70;1.60;;;;;;;;;;5440521;26;21066;-75
2024/04/25 14:47:44;;;;;;;1.33;1.27;;;;;;;;;;5432496;26;20484;-74
2024/04/25 14:50:13;;;;;;;1.60;1.50;;;;;;;;;;5448450;26;20483;-74
2024/04/25 14:52:42;;;;;;;1.63;1.20;;;;;;;;;;5448270;26;20532;-74
2024/04/25 14:55:11;;;;;;;1.67;1.30;;;;;;;;;;5446680;26;20467;-74
2024/04/25 14:57:40;;;;;;;1.40;1.30;;;;;;;;;;5434768;26;20471;-75
2024/04/25 15:00:12;;;;;;;1.67;1.57;;;;;;;;;;5436256;26;20516;-73
2024/04/25 15:02:41;;;;;;;3.50;1.50;;;;;;;;;;5448158;26;20527;-73
2024/04/25 15:05:10;;;;;;;1.83;1.27;;;;;;;;;;5447314;26;20507;-74
2024/04/25 15:07:39;;;;;;;3.80;1.40;;;;;;;;;;5436668;26;20546;-74
2024/04/25 15:10:08;;;;;;;2.53;2.33;;;;;;;;;;5437304;26;20467;-74